Nichiryu Maru — JG5632 — position and weather

sailwx.info

Track history (hours):
 
Tides and Currents Weather Stations Pressure Air Temp Water Temp Dewpoint Dewpoint Depression Visibility Wind Speed Wind Dir Waves Ship Positions

Nichiryu Maru

Last reported at 2014-Nov-24 09:33 UTC. Time now 2014-Nov-25 01:50 UTC.
Position N 35°04' E 139°37'.

Length 158 m; draft 6.5 m.

Type: Cargo ship. MMSI: 43100939.

Date/timePositionNaut miles runAvg speedWind from/ knotsBaromVisibWave heightAir tempDewpointWater temp
2014-Nov-24 09:33N 35°04' E 139°37'1414.0
2014-Nov-24 08:33N 35°17' E 139°45'5 4.4
2014-Nov-24 07:21N 35°19' E 139°39'0 0.0
2014-Nov-24 06:15N 35°19' E 139°39'0 0.0
2014-Nov-24 05:21N 35°19' E 139°39'0 0.0
2014-Nov-24 04:33N 35°19' E 139°39'0 0.0
2014-Nov-24 03:27N 35°19' E 139°39'0 0.0
2014-Nov-24 02:33N 35°19' E 139°39'0 0.0
2014-Nov-24 01:33N 35°19' E 139°39'0 0.0
2014-Nov-24 00:33N 35°19' E 139°39'0 0.0
2014-Nov-23 23:33N 35°19' E 139°39'2 1.8
2014-Nov-23 22:32N 35°19' E 139°41'0 0.0
2014-Nov-23 21:29N 35°19' E 139°41'0 0.0
2014-Nov-23 20:32N 35°19' E 139°41'0 0.1
2014-Nov-23 19:32N 35°19' E 139°41'0 0.0
2014-Nov-23 18:32N 35°19' E 139°41'0 0.0
2014-Nov-23 17:32N 35°19' E 139°41'0 0.0
2014-Nov-23 16:29N 35°19' E 139°41'0 0.0
2014-Nov-23 15:32N 35°19' E 139°41'0 0.0
2014-Nov-23 14:32N 35°19' E 139°41'0 0.0
2014-Nov-23 13:23N 35°19' E 139°41'0 0.0
2014-Nov-23 12:32N 35°19' E 139°41'0 0.0
2014-Nov-23 11:32N 35°19' E 139°41'7 7.1
2014-Nov-23 10:33N 35°14' E 139°47'247 4.9
2014-Nov-21 08:10N 34°34' E 134°49'1117.8
2014-Nov-21 07:33N 34°37' E 135°02'1010.3
2014-Nov-21 06:33N 34°41' E 135°14'0 0.2
2014-Nov-21 05:21N 34°41' E 135°13'0 0.0
2014-Nov-21 04:33N 34°41' E 135°13'0 0.1
2014-Nov-21 03:33N 34°41' E 135°14'1111.4
2014-Nov-21 02:33N 34°29' E 135°13'1717.3
2014-Nov-21 01:33N 34°16' E 134°59'1818.4
2014-Nov-21 00:33N 33°58' E 135°00'24116.6
2014-Nov-20 10:03N 35°06' E 139°41'816.8
2014-Nov-20 09:33N 35°14' E 139°46'8 5.7
2014-Nov-20 08:10N 35°19' E 139°39'0 0.0
2014-Nov-20 07:31N 35°19' E 139°39'0 0.0
2014-Nov-20 05:25N 35°19' E 139°39'0 0.0
2014-Nov-20 04:31N 35°19' E 139°39'3 3.6
2014-Nov-20 03:33N 35°18' E 139°43'1312.5
2014-Nov-20 02:33N 35°06' E 139°45'  
2014-Nov-17 11:23N 35°03' E 139°37'1316.0
2014-Nov-17 10:33N 35°14' E 139°46'8 7.4
2014-Nov-17 09:29N 35°19' E 139°39'0 0.0
2014-Nov-17 08:32N 35°19' E 139°39'0 0.0
2014-Nov-17 07:26N 35°19' E 139°39'0 0.0
2014-Nov-17 06:32N 35°19' E 139°39'0 0.0
2014-Nov-17 05:32N 35°19' E 139°39'0 0.0
2014-Nov-17 04:32N 35°19' E 139°39'0 0.0
2014-Nov-17 03:14N 35°19' E 139°39'0 0.0
2014-Nov-17 02:26N 35°19' E 139°39'0 0.0
2014-Nov-17 01:17N 35°19' E 139°39'0 0.0
2014-Nov-17 00:32N 35°19' E 139°39'0 0.0
2014-Nov-16 23:32N 35°19' E 139°39'6 5.7
2014-Nov-16 22:33N 35°17' E 139°45'1514.2
2014-Nov-16 21:29N 35°02' E 139°42'  
Track history (hours):
 
Tides and Currents Weather Stations Pressure Air Temp Water Temp Dewpoint Dewpoint Depression Visibility Wind Speed Wind Dir Waves Ship Positions

Nichiryu Maru

Last reported at 2014-Nov-24 09:33 UTC. Time now 2014-Nov-25 01:50 UTC.
Position N 35°04' E 139°37'.

Length 158 m; draft 6.5 m.

Type: Cargo ship. MMSI: 43100939.

Date/timePositionNaut miles runAvg speedWind from/ knotsBaromVisibWave heightAir tempDewpointWater temp
2014-Nov-24 09:33N 35°04' E 139°37'1414.0
2014-Nov-24 08:33N 35°17' E 139°45'5 4.4
2014-Nov-24 07:21N 35°19' E 139°39'0 0.0
2014-Nov-24 06:15N 35°19' E 139°39'0 0.0
2014-Nov-24 05:21N 35°19' E 139°39'0 0.0
2014-Nov-24 04:33N 35°19' E 139°39'0 0.0
2014-Nov-24 03:27N 35°19' E 139°39'0 0.0
2014-Nov-24 02:33N 35°19' E 139°39'0 0.0
2014-Nov-24 01:33N 35°19' E 139°39'0 0.0
2014-Nov-24 00:33N 35°19' E 139°39'0 0.0
2014-Nov-23 23:33N 35°19' E 139°39'2 1.8
2014-Nov-23 22:32N 35°19' E 139°41'0 0.0
2014-Nov-23 21:29N 35°19' E 139°41'0 0.0
2014-Nov-23 20:32N 35°19' E 139°41'0 0.1
2014-Nov-23 19:32N 35°19' E 139°41'0 0.0
2014-Nov-23 18:32N 35°19' E 139°41'0 0.0
2014-Nov-23 17:32N 35°19' E 139°41'0 0.0
2014-Nov-23 16:29N 35°19' E 139°41'0 0.0
2014-Nov-23 15:32N 35°19' E 139°41'0 0.0
2014-Nov-23 14:32N 35°19' E 139°41'0 0.0
2014-Nov-23 13:23N 35°19' E 139°41'0 0.0
2014-Nov-23 12:32N 35°19' E 139°41'0 0.0
2014-Nov-23 11:32N 35°19' E 139°41'7 7.1
2014-Nov-23 10:33N 35°14' E 139°47'247 4.9
2014-Nov-21 08:10N 34°34' E 134°49'1117.8
2014-Nov-21 07:33N 34°37' E 135°02'1010.3
2014-Nov-21 06:33N 34°41' E 135°14'0 0.2
2014-Nov-21 05:21N 34°41' E 135°13'0 0.0
2014-Nov-21 04:33N 34°41' E 135°13'0 0.1
2014-Nov-21 03:33N 34°41' E 135°14'1111.4
2014-Nov-21 02:33N 34°29' E 135°13'1717.3
2014-Nov-21 01:33N 34°16' E 134°59'1818.4
2014-Nov-21 00:33N 33°58' E 135°00'24116.6
2014-Nov-20 10:03N 35°06' E 139°41'816.8
2014-Nov-20 09:33N 35°14' E 139°46'8 5.7
2014-Nov-20 08:10N 35°19' E 139°39'0 0.0
2014-Nov-20 07:31N 35°19' E 139°39'0 0.0
2014-Nov-20 05:25N 35°19' E 139°39'0 0.0
2014-Nov-20 04:31N 35°19' E 139°39'3 3.6
2014-Nov-20 03:33N 35°18' E 139°43'1312.5
2014-Nov-20 02:33N 35°06' E 139°45'  
2014-Nov-17 11:23N 35°03' E 139°37'1316.0
2014-Nov-17 10:33N 35°14' E 139°46'8 7.4
2014-Nov-17 09:29N 35°19' E 139°39'0 0.0
2014-Nov-17 08:32N 35°19' E 139°39'0 0.0
2014-Nov-17 07:26N 35°19' E 139°39'0 0.0
2014-Nov-17 06:32N 35°19' E 139°39'0 0.0
2014-Nov-17 05:32N 35°19' E 139°39'0 0.0
2014-Nov-17 04:32N 35°19' E 139°39'0 0.0
2014-Nov-17 03:14N 35°19' E 139°39'0 0.0
2014-Nov-17 02:26N 35°19' E 139°39'0 0.0
2014-Nov-17 01:17N 35°19' E 139°39'0 0.0
2014-Nov-17 00:32N 35°19' E 139°39'0 0.0
2014-Nov-16 23:32N 35°19' E 139°39'6 5.7
2014-Nov-16 22:33N 35°17' E 139°45'1514.2
2014-Nov-16 21:29N 35°02' E 139°42'  

Dump ship's entire track history